Ellerbe, North Carolina
Current Conditions -  °F | °C
As of 3:35 AM on Monday 22 Dec 2014 (Local Time) from KRCZ Reporting Station
Drizzle Drizzle  
Wind Chill:   Ceiling: 700
Heat Index:   Visibility: 4mi
Dew Point:   Wind: 7mph
Humidity: 97%   Direction: 360°N
Pressure: 30.11"   Gusts: NA
Location:  35.07°N, 79.76°W
Report Text: KRCZ 220835Z AUTO 36006KT 4SM DZ OVC007 05/04 A3011 RMK AO2 P0004 T00460041
Loading
Personal Weather Stations






























Interactive Weather Map New forecast layout! Learn more

10-Day Weather Forecast

Advertisements
Track Severe Weather on mobile